aviador You're here:

KPDT Decoded Metar

PENDLETON in OR, USA
Report Time2018-06-23 23:53:00
UTC Time2018-06-24 00:58:23
Flight Rules vfr VFR
Wind050° at 03 kt
W.Decomp.*RWY 07: 2.4 kt HW 1.8 kt LCW
RWY 34: 1.8 kt HW 2.4 kt RCW
RWY 11: 0.7 kt HW 2.9 kt LCW
W.Rank050° ranks 34
Current wind is below 050° avg. (6.6)
Visibility9999 m
Phenomena:N/A
Clouds:N/A
Expected CloudBase > 8,800 ft AGL from Temp-Dew spread
CeilingNone
Temp26°C (ISA +14)
Dew Point04°C (24% RH)
AAT23.6°C
QNH1017 hPa
Density Alt3,110 ft
Elevation1,516 ft
Report Wrong Elevation
Raw Report
KPDT 232353Z 05003KT 10SM CLR 26/04 A3002 RMK AO2 SLP151 60000
T02610039 10272 20211 58005=

Extra information for KPDT:More info

Metar Taf Metar & Taf Last 4 Metars F.Rules Stats Wind Profile Meteogram Temp Stats Airport Information Weather charts Add Link Nearby VenuesMetar ALERT Operation Metar Decoded Social comments

AIRNAV info for KPDT